KLM67E EHAM-LGAV
Flight info
| Callsign | KLM67E |
|---|---|
| Flight time | N/A |
| Altitude | 35000 |
| Route | EDUPO Z739 MISGO DCT DOJOH DCT DODEN DCT NEGIX DCT DINKU M867 XERUM DCT BAVAX DCT RADIZ DCT LUMUS DCT GORPA DCT ELTIB DCT PINDO DCT PIKOS UL607 XORKI |
| Aircraft | B738/M-SDE2E3FGHIRWXY/LB1 |
Departure
| Time | 2026-05-07 11:24 |
|---|---|
| Airport | Amsterdam Airport Schiphol (EHAM) |
Arrival
| Time | N/A |
|---|---|
| Airport | Athens Eleftherios Venizelos International Airport (LGAV) |
| Time | Latitude | Longitude | Altitude | Speed | Heading |
|---|---|---|---|---|---|
| 2026-05-07 10:15 | 52.30890 | 4.77366 | -2 ft | 0 kts | 3° |
| 2026-05-07 10:15 | 52.30895 | 4.77367 | -2 ft | 0 kts | 3° |
| 2026-05-07 11:11 | 52.30876 | 4.77366 | -2 ft | 4 kts | 353° |
| 2026-05-07 11:11 | 52.30852 | 4.77370 | -2 ft | 4 kts | 31° |
| 2026-05-07 11:11 | 52.30843 | 4.77348 | -2 ft | 4 kts | 81° |
| 2026-05-07 11:11 | 52.30841 | 4.77337 | -2 ft | 1 kts | 79° |
| 2026-05-07 11:16 | 52.30841 | 4.77338 | -2 ft | 0 kts | 80° |
| 2026-05-07 11:16 | 52.30840 | 4.77366 | -2 ft | 6 kts | 96° |
| 2026-05-07 11:16 | 52.30835 | 4.77477 | -2 ft | 13 kts | 94° |
| 2026-05-07 11:16 | 52.30807 | 4.77593 | -2 ft | 11 kts | 156° |
| 2026-05-07 11:17 | 52.30728 | 4.77594 | -2 ft | 12 kts | 184° |
| 2026-05-07 11:17 | 52.30650 | 4.77549 | -2 ft | 12 kts | 240° |
| 2026-05-07 11:17 | 52.30634 | 4.77411 | -2 ft | 12 kts | 249° |
| 2026-05-07 11:17 | 52.30592 | 4.77295 | -2 ft | 12 kts | 234° |
| 2026-05-07 11:18 | 52.30545 | 4.77186 | -2 ft | 12 kts | 238° |
| 2026-05-07 11:18 | 52.30502 | 4.77058 | -2 ft | 15 kts | 237° |
| 2026-05-07 11:18 | 52.30435 | 4.76890 | -2 ft | 21 kts | 237° |
| 2026-05-07 11:18 | 52.30345 | 4.76661 | -2 ft | 26 kts | 238° |
| 2026-05-07 11:19 | 52.30254 | 4.76416 | -2 ft | 25 kts | 239° |
| 2026-05-07 11:19 | 52.30167 | 4.76185 | -2 ft | 23 kts | 238° |
| 2026-05-07 11:19 | 52.30083 | 4.75967 | -2 ft | 22 kts | 238° |
| 2026-05-07 11:19 | 52.30010 | 4.75780 | -2 ft | 18 kts | 237° |
| 2026-05-07 11:20 | 52.29942 | 4.75608 | -2 ft | 18 kts | 237° |
| 2026-05-07 11:20 | 52.29877 | 4.75441 | -2 ft | 17 kts | 238° |
| 2026-05-07 11:20 | 52.29821 | 4.75278 | -2 ft | 15 kts | 256° |
| 2026-05-07 11:20 | 52.29875 | 4.75141 | -2 ft | 15 kts | 307° |
| 2026-05-07 11:21 | 52.29937 | 4.75012 | -2 ft | 14 kts | 309° |
| 2026-05-07 11:21 | 52.30000 | 4.74892 | -2 ft | 14 kts | 311° |
| 2026-05-07 11:21 | 52.30079 | 4.74756 | 0 ft | 19 kts | 311° |
| 2026-05-07 11:21 | 52.30168 | 4.74587 | 9 ft | 22 kts | 312° |
| 2026-05-07 11:22 | 52.30268 | 4.74402 | 9 ft | 19 kts | 311° |
| 2026-05-07 11:22 | 52.30341 | 4.74260 | -2 ft | 17 kts | 305° |
| 2026-05-07 11:22 | 52.30359 | 4.74101 | -2 ft | 14 kts | 242° |
| 2026-05-07 11:22 | 52.30286 | 4.73996 | -2 ft | 14 kts | 216° |
| 2026-05-07 11:23 | 52.30211 | 4.73906 | -2 ft | 13 kts | 217° |
| 2026-05-07 11:23 | 52.30195 | 4.73774 | -3 ft | 13 kts | 296° |
| 2026-05-07 11:23 | 52.30288 | 4.73747 | -5 ft | 21 kts | 4° |
| 2026-05-07 11:23 | 52.30729 | 4.73788 | -2 ft | 103 kts | 3° |
| 2026-05-07 11:24 | 52.31672 | 4.73871 | 20 ft | 165 kts | 4° |
| 2026-05-07 11:24 | 52.32829 | 4.73988 | 862 ft | 161 kts | 4° |
| 2026-05-07 11:24 | 52.33979 | 4.74182 | 1751 ft | 170 kts | 18° |